sensor_id;sensor_type;location;lat;lon;timestamp;pressure;altitude;pressure_sealevel;temperature;humidity
12178;BME280;6152;48.728;9.256;2023-03-25T00:01:07;96518.50;;;7.49;100.00
12178;BME280;6152;48.728;9.256;2023-03-25T00:03:39;96522.13;;;7.46;100.00
12178;BME280;6152;48.728;9.256;2023-03-25T00:06:12;96540.25;;;7.46;100.00
12178;BME280;6152;48.728;9.256;2023-03-25T00:08:39;96545.59;;;7.43;100.00
12178;BME280;6152;48.728;9.256;2023-03-25T00:11:05;96519.59;;;7.31;100.00
12178;BME280;6152;48.728;9.256;2023-03-25T00:13:33;96488.75;;;7.12;100.00
12178;BME280;6152;48.728;9.256;2023-03-25T00:16:00;96493.50;;;7.04;100.00
12178;BME280;6152;48.728;9.256;2023-03-25T00:18:28;96488.13;;;6.93;100.00
12178;BME280;6152;48.728;9.256;2023-03-25T00:21:01;96483.28;;;6.87;100.00
12178;BME280;6152;48.728;9.256;2023-03-25T00:23:29;96476.97;;;6.77;100.00
12178;BME280;6152;48.728;9.256;2023-03-25T00:25:56;96477.47;;;6.68;100.00
12178;BME280;6152;48.728;9.256;2023-03-25T00:28:32;96477.06;;;6.59;100.00
12178;BME280;6152;48.728;9.256;2023-03-25T00:31:01;96477.97;;;6.58;100.00
12178;BME280;6152;48.728;9.256;2023-03-25T00:33:28;96500.84;;;6.50;100.00
12178;BME280;6152;48.728;9.256;2023-03-25T00:35:55;96495.84;;;6.47;100.00
12178;BME280;6152;48.728;9.256;2023-03-25T00:38:25;96502.25;;;6.40;100.00
12178;BME280;6152;48.728;9.256;2023-03-25T00:41:06;96494.66;;;6.37;100.00
12178;BME280;6152;48.728;9.256;2023-03-25T00:43:32;96508.66;;;6.33;100.00
12178;BME280;6152;48.728;9.256;2023-03-25T00:45:58;96501.25;;;6.27;100.00
12178;BME280;6152;48.728;9.256;2023-03-25T00:48:24;96494.63;;;6.22;100.00
12178;BME280;6152;48.728;9.256;2023-03-25T00:50:52;96495.53;;;6.21;100.00
12178;BME280;6152;48.728;9.256;2023-03-25T00:53:18;96495.63;;;6.19;100.00
12178;BME280;6152;48.728;9.256;2023-03-25T00:55:44;96489.97;;;6.13;100.00
12178;BME280;6152;48.728;9.256;2023-03-25T00:58:10;96489.88;;;6.14;100.00
12178;BME280;6152;48.728;9.256;2023-03-25T01:00:37;96476.97;;;6.14;100.00
12178;BME280;6152;48.728;9.256;2023-03-25T01:03:03;96473.63;;;6.12;100.00
12178;BME280;6152;48.728;9.256;2023-03-25T01:05:29;96472.13;;;6.08;100.00
12178;BME280;6152;48.728;9.256;2023-03-25T01:07:56;96473.69;;;6.10;100.00
12178;BME280;6152;48.728;9.256;2023-03-25T01:10:22;96475.63;;;6.07;100.00
12178;BME280;6152;48.728;9.256;2023-03-25T01:12:48;96463.63;;;6.06;100.00
12178;BME280;6152;48.728;9.256;2023-03-25T01:15:15;96472.13;;;6.08;100.00
12178;BME280;6152;48.728;9.256;2023-03-25T01:17:41;96472.28;;;6.05;100.00
12178;BME280;6152;48.728;9.256;2023-03-25T01:20:07;96473.13;;;6.05;100.00
12178;BME280;6152;48.728;9.256;2023-03-25T01:22:34;96489.94;;;5.97;100.00
12178;BME280;6152;48.728;9.256;2023-03-25T01:25:00;96481.59;;;5.92;100.00
12178;BME280;6152;48.728;9.256;2023-03-25T01:27:27;96481.00;;;5.87;100.00
12178;BME280;6152;48.728;9.256;2023-03-25T01:29:53;96469.59;;;5.91;100.00
12178;BME280;6152;48.728;9.256;2023-03-25T01:32:19;96462.63;;;5.93;100.00
12178;BME280;6152;48.728;9.256;2023-03-25T01:34:46;96471.50;;;5.87;100.00
12178;BME280;6152;48.728;9.256;2023-03-25T01:37:12;96461.78;;;5.92;100.00
12178;BME280;6152;48.728;9.256;2023-03-25T01:39:39;96447.13;;;5.93;100.00
12178;BME280;6152;48.728;9.256;2023-03-25T01:42:05;96468.69;;;5.92;100.00
12178;BME280;6152;48.728;9.256;2023-03-25T01:47:04;96461.09;;;5.89;100.00
12178;BME280;6152;48.728;9.256;2023-03-25T01:49:35;96443.78;;;5.91;100.00
12178;BME280;6152;48.728;9.256;2023-03-25T01:52:06;96446.97;;;5.96;100.00
12178;BME280;6152;48.728;9.256;2023-03-25T01:54:35;96452.97;;;5.96;100.00
12178;BME280;6152;48.728;9.256;2023-03-25T01:57:04;96456.97;;;6.02;100.00
12178;BME280;6152;48.728;9.256;2023-03-25T01:59:32;96450.13;;;6.01;100.00
12178;BME280;6152;48.728;9.256;2023-03-25T02:02:01;96439.78;;;6.01;100.00
12178;BME280;6152;48.728;9.256;2023-03-25T02:04:39;96440.78;;;5.98;100.00
12178;BME280;6152;48.728;9.256;2023-03-25T02:07:09;96443.28;;;6.00;100.00
12178;BME280;6152;48.728;9.256;2023-03-25T02:09:36;96448.53;;;5.98;100.00
12178;BME280;6152;48.728;9.256;2023-03-25T02:12:03;96428.78;;;5.97;100.00
12178;BME280;6152;48.728;9.256;2023-03-25T02:14:32;96418.00;;;6.06;100.00
12178;BME280;6152;48.728;9.256;2023-03-25T02:17:22;96429.00;;;6.10;100.00
12178;BME280;6152;48.728;9.256;2023-03-25T02:20:32;96425.63;;;6.08;100.00
12178;BME280;6152;48.728;9.256;2023-03-25T02:28:52;96441.81;;;6.12;100.00
12178;BME280;6152;48.728;9.256;2023-03-25T02:34:32;96442.13;;;6.21;100.00
12178;BME280;6152;48.728;9.256;2023-03-25T02:40:13;96434.06;;;6.27;100.00
12178;BME280;6152;48.728;9.256;2023-03-25T02:45:11;96456.06;;;6.34;100.00
12178;BME280;6152;48.728;9.256;2023-03-25T02:47:53;96465.13;;;6.41;100.00
12178;BME280;6152;48.728;9.256;2023-03-25T02:50:28;96470.31;;;6.41;100.00
12178;BME280;6152;48.728;9.256;2023-03-25T02:52:59;96472.16;;;6.39;100.00
12178;BME280;6152;48.728;9.256;2023-03-25T02:55:29;96471.25;;;6.40;100.00
12178;BME280;6152;48.728;9.256;2023-03-25T02:57:57;96474.91;;;6.36;100.00
12178;BME280;6152;48.728;9.256;2023-03-25T03:00:27;96475.47;;;6.41;100.00
12178;BME280;6152;48.728;9.256;2023-03-25T03:02:56;96469.63;;;6.38;100.00
12178;BME280;6152;48.728;9.256;2023-03-25T03:05:31;96446.47;;;6.36;100.00
12178;BME280;6152;48.728;9.256;2023-03-25T03:11:13;96463.06;;;6.32;100.00
12178;BME280;6152;48.728;9.256;2023-03-25T03:14:10;96460.97;;;6.23;100.00
12178;BME280;6152;48.728;9.256;2023-03-25T03:17:02;96469.63;;;6.22;100.00
12178;BME280;6152;48.728;9.256;2023-03-25T03:19:41;96460.56;;;6.15;100.00
12178;BME280;6152;48.728;9.256;2023-03-25T03:30:42;96472.94;;;5.93;100.00
12178;BME280;6152;48.728;9.256;2023-03-25T03:36:25;96482.81;;;5.85;100.00
12178;BME280;6152;48.728;9.256;2023-03-25T03:39:05;96478.72;;;5.81;100.00
12178;BME280;6152;48.728;9.256;2023-03-25T03:41:37;96484.19;;;5.75;100.00
12178;BME280;6152;48.728;9.256;2023-03-25T03:44:10;96482.34;;;5.77;100.00
12178;BME280;6152;48.728;9.256;2023-03-25T03:46:42;96486.69;;;5.76;100.00
12178;BME280;6152;48.728;9.256;2023-03-25T03:49:16;96481.63;;;5.75;100.00
12178;BME280;6152;48.728;9.256;2023-03-25T03:51:51;96488.59;;;5.73;100.00
12178;BME280;6152;48.728;9.256;2023-03-25T03:54:23;96496.31;;;5.73;100.00
12178;BME280;6152;48.728;9.256;2023-03-25T03:57:04;96501.19;;;5.79;100.00
12178;BME280;6152;48.728;9.256;2023-03-25T04:02:33;96496.50;;;5.70;100.00
12178;BME280;6152;48.728;9.256;2023-03-25T04:05:10;96502.50;;;5.70;100.00
12178;BME280;6152;48.728;9.256;2023-03-25T04:07:50;96499.31;;;5.65;100.00
12178;BME280;6152;48.728;9.256;2023-03-25T04:10:32;96509.78;;;5.62;100.00
12178;BME280;6152;48.728;9.256;2023-03-25T04:13:08;96508.13;;;5.61;100.00
12178;BME280;6152;48.728;9.256;2023-03-25T04:15:36;96505.78;;;5.56;100.00
12178;BME280;6152;48.728;9.256;2023-03-25T04:18:02;96504.41;;;5.49;100.00
12178;BME280;6152;48.728;9.256;2023-03-25T04:20:31;96505.56;;;5.44;100.00
12178;BME280;6152;48.728;9.256;2023-03-25T04:23:00;96500.47;;;5.42;100.00
12178;BME280;6152;48.728;9.256;2023-03-25T04:25:26;96499.56;;;5.43;100.00
12178;BME280;6152;48.728;9.256;2023-03-25T04:27:52;96499.72;;;5.40;100.00
12178;BME280;6152;48.728;9.256;2023-03-25T04:30:24;96495.53;;;5.38;100.00
12178;BME280;6152;48.728;9.256;2023-03-25T04:32:51;96507.00;;;5.32;100.00
12178;BME280;6152;48.728;9.256;2023-03-25T04:35:18;96506.00;;;5.35;100.00
12178;BME280;6152;48.728;9.256;2023-03-25T04:37:45;96506.16;;;5.32;100.00
12178;BME280;6152;48.728;9.256;2023-03-25T04:40:15;96508.06;;;5.28;100.00
12178;BME280;6152;48.728;9.256;2023-03-25T04:42:47;96508.06;;;5.28;100.00
12178;BME280;6152;48.728;9.256;2023-03-25T04:45:14;96513.22;;;5.28;100.00
12178;BME280;6152;48.728;9.256;2023-03-25T04:47:43;96502.31;;;5.23;100.00
12178;BME280;6152;48.728;9.256;2023-03-25T04:50:28;96508.53;;;5.19;100.00
12178;BME280;6152;48.728;9.256;2023-03-25T04:52:55;96512.16;;;5.15;100.00
12178;BME280;6152;48.728;9.256;2023-03-25T04:55:27;96505.56;;;5.09;100.00
12178;BME280;6152;48.728;9.256;2023-03-25T04:57:55;96505.78;;;5.05;100.00
12178;BME280;6152;48.728;9.256;2023-03-25T05:00:23;96506.81;;;5.01;100.00
12178;BME280;6152;48.728;9.256;2023-03-25T05:02:51;96518.97;;;4.99;100.00
12178;BME280;6152;48.728;9.256;2023-03-25T05:05:20;96514.13;;;4.93;100.00
12178;BME280;6152;48.728;9.256;2023-03-25T05:07:52;96515.91;;;4.91;100.00
12178;BME280;6152;48.728;9.256;2023-03-25T05:10:25;96513.69;;;4.83;100.00
12178;BME280;6152;48.728;9.256;2023-03-25T05:13:01;96517.91;;;4.86;100.00
12178;BME280;6152;48.728;9.256;2023-03-25T05:15:27;96518.84;;;4.83;100.00
12178;BME280;6152;48.728;9.256;2023-03-25T05:17:55;96516.38;;;4.82;100.00
12178;BME280;6152;48.728;9.256;2023-03-25T05:20:21;96526.81;;;4.79;100.00
12178;BME280;6152;48.728;9.256;2023-03-25T05:22:47;96527.63;;;4.79;100.00
12178;BME280;6152;48.728;9.256;2023-03-25T05:25:13;96530.22;;;4.79;100.00
12178;BME280;6152;48.728;9.256;2023-03-25T05:27:40;96526.69;;;4.82;100.00
12178;BME280;6152;48.728;9.256;2023-03-25T05:30:07;96536.53;;;4.91;100.00
12178;BME280;6152;48.728;9.256;2023-03-25T05:32:33;96537.91;;;4.98;100.00
12178;BME280;6152;48.728;9.256;2023-03-25T05:35:03;96542.78;;;5.04;100.00
12178;BME280;6152;48.728;9.256;2023-03-25T05:37:29;96544.25;;;5.09;100.00
12178;BME280;6152;48.728;9.256;2023-03-25T05:39:56;96545.53;;;5.18;100.00
12178;BME280;6152;48.728;9.256;2023-03-25T05:42:23;96545.09;;;5.27;100.00
12178;BME280;6152;48.728;9.256;2023-03-25T05:44:50;96543.13;;;5.32;100.00
12178;BME280;6152;48.728;9.256;2023-03-25T05:47:21;96542.97;;;5.35;100.00
12178;BME280;6152;48.728;9.256;2023-03-25T05:49:49;96535.06;;;5.38;100.00
12178;BME280;6152;48.728;9.256;2023-03-25T05:52:16;96540.16;;;5.40;100.00
12178;BME280;6152;48.728;9.256;2023-03-25T05:54:46;96546.06;;;5.42;100.00
12178;BME280;6152;48.728;9.256;2023-03-25T05:57:16;96544.03;;;5.48;100.00
12178;BME280;6152;48.728;9.256;2023-03-25T05:59:43;96550.13;;;5.47;100.00
12178;BME280;6152;48.728;9.256;2023-03-25T06:02:14;96549.88;;;5.52;100.00
12178;BME280;6152;48.728;9.256;2023-03-25T06:04:41;96556.53;;;5.56;100.00
12178;BME280;6152;48.728;9.256;2023-03-25T06:07:09;96560.59;;;5.62;100.00
12178;BME280;6152;48.728;9.256;2023-03-25T06:09:42;96562.69;;;5.71;100.00
12178;BME280;6152;48.728;9.256;2023-03-25T06:12:19;96559.81;;;5.77;100.00
12178;BME280;6152;48.728;9.256;2023-03-25T06:14:47;96568.00;;;5.85;100.00
12178;BME280;6152;48.728;9.256;2023-03-25T06:17:15;96566.81;;;5.92;100.00
12178;BME280;6152;48.728;9.256;2023-03-25T06:19:43;96562.91;;;6.00;100.00
12178;BME280;6152;48.728;9.256;2023-03-25T06:22:10;96577.19;;;6.07;100.00
12178;BME280;6152;48.728;9.256;2023-03-25T06:24:40;96578.47;;;6.16;100.00
12178;BME280;6152;48.728;9.256;2023-03-25T06:27:11;96582.25;;;6.26;100.00
12178;BME280;6152;48.728;9.256;2023-03-25T06:29:38;96573.31;;;6.32;100.00
12178;BME280;6152;48.728;9.256;2023-03-25T06:32:07;96559.84;;;6.42;100.00
12178;BME280;6152;48.728;9.256;2023-03-25T06:34:33;96570.38;;;6.55;100.00
12178;BME280;6152;48.728;9.256;2023-03-25T06:37:00;96574.38;;;6.60;100.00
12178;BME280;6152;48.728;9.256;2023-03-25T06:39:28;96565.56;;;6.65;100.00
12178;BME280;6152;48.728;9.256;2023-03-25T06:41:59;96563.22;;;6.76;100.00
12178;BME280;6152;48.728;9.256;2023-03-25T06:44:25;96573.06;;;6.85;100.00
12178;BME280;6152;48.728;9.256;2023-03-25T06:46:52;96563.88;;;6.95;100.00
12178;BME280;6152;48.728;9.256;2023-03-25T06:49:18;96568.72;;;7.01;100.00
12178;BME280;6152;48.728;9.256;2023-03-25T06:51:45;96573.03;;;7.00;100.00
12178;BME280;6152;48.728;9.256;2023-03-25T06:54:11;96577.06;;;7.06;100.00
12178;BME280;6152;48.728;9.256;2023-03-25T06:56:38;96576.72;;;7.12;100.00
12178;BME280;6152;48.728;9.256;2023-03-25T06:59:04;96580.63;;;7.19;100.00
12178;BME280;6152;48.728;9.256;2023-03-25T07:01:31;96574.38;;;7.23;100.00
12178;BME280;6152;48.728;9.256;2023-03-25T07:03:57;96580.28;;;7.25;100.00
12178;BME280;6152;48.728;9.256;2023-03-25T07:06:23;96588.47;;;7.33;100.00
12178;BME280;6152;48.728;9.256;2023-03-25T07:08:49;96579.97;;;7.45;100.00
12178;BME280;6152;48.728;9.256;2023-03-25T07:11:19;96584.97;;;7.48;100.00
12178;BME280;6152;48.728;9.256;2023-03-25T07:13:48;96588.81;;;7.57;100.00
12178;BME280;6152;48.728;9.256;2023-03-25T07:16:21;96592.97;;;7.59;100.00
12178;BME280;6152;48.728;9.256;2023-03-25T07:18:47;96600.69;;;7.45;100.00
12178;BME280;6152;48.728;9.256;2023-03-25T07:21:15;96593.88;;;7.44;100.00
12178;BME280;6152;48.728;9.256;2023-03-25T07:23:41;96590.34;;;7.45;100.00
12178;BME280;6152;48.728;9.256;2023-03-25T07:26:08;96590.50;;;7.42;100.00
12178;BME280;6152;48.728;9.256;2023-03-25T07:28:34;96593.34;;;7.53;100.00
12178;BME280;6152;48.728;9.256;2023-03-25T07:31:00;96586.47;;;7.52;100.00
12178;BME280;6152;48.728;9.256;2023-03-25T07:33:26;96583.94;;;7.67;100.00
12178;BME280;6152;48.728;9.256;2023-03-25T07:35:52;96590.91;;;7.80;100.00
12178;BME280;6152;48.728;9.256;2023-03-25T07:38:18;96600.28;;;7.97;100.00
12178;BME280;6152;48.728;9.256;2023-03-25T07:40:44;96591.88;;;8.07;100.00
12178;BME280;6152;48.728;9.256;2023-03-25T07:43:11;96590.88;;;8.24;100.00
12178;BME280;6152;48.728;9.256;2023-03-25T07:45:37;96595.25;;;8.24;100.00
12178;BME280;6152;48.728;9.256;2023-03-25T07:48:03;96578.53;;;8.29;100.00
12178;BME280;6152;48.728;9.256;2023-03-25T07:50:29;96591.88;;;8.51;100.00
12178;BME280;6152;48.728;9.256;2023-03-25T07:52:56;96592.88;;;8.63;100.00
12178;BME280;6152;48.728;9.256;2023-03-25T07:55:22;96583.72;;;8.57;100.00
12178;BME280;6152;48.728;9.256;2023-03-25T07:57:48;96589.09;;;8.69;100.00
12178;BME280;6152;48.728;9.256;2023-03-25T08:00:14;96584.47;;;9.00;100.00
12178;BME280;6152;48.728;9.256;2023-03-25T08:02:40;96586.44;;;8.97;100.00
12178;BME280;6152;48.728;9.256;2023-03-25T08:05:07;96588.59;;;9.17;100.00
12178;BME280;6152;48.728;9.256;2023-03-25T08:07:33;96582.47;;;9.18;100.00
12178;BME280;6152;48.728;9.256;2023-03-25T08:09:59;96574.28;;;9.24;100.00
12178;BME280;6152;48.728;9.256;2023-03-25T08:12:25;96582.25;;;9.08;100.00
12178;BME280;6152;48.728;9.256;2023-03-25T08:14:51;96577.25;;;9.32;100.00
12178;BME280;6152;48.728;9.256;2023-03-25T08:17:18;96579.97;;;9.31;100.00
12178;BME280;6152;48.728;9.256;2023-03-25T08:19:44;96577.84;;;9.23;100.00
12178;BME280;6152;48.728;9.256;2023-03-25T08:22:10;96577.03;;;9.35;100.00
12178;BME280;6152;48.728;9.256;2023-03-25T08:24:36;96581.66;;;9.18;100.00
12178;BME280;6152;48.728;9.256;2023-03-25T08:27:02;96586.94;;;9.16;100.00
12178;BME280;6152;48.728;9.256;2023-03-25T08:29:29;96581.91;;;9.27;100.00
12178;BME280;6152;48.728;9.256;2023-03-25T08:31:59;96582.09;;;9.24;100.00
12178;BME280;6152;48.728;9.256;2023-03-25T08:34:25;96583.22;;;9.20;100.00
12178;BME280;6152;48.728;9.256;2023-03-25T08:36:52;96594.63;;;9.18;100.00
12178;BME280;6152;48.728;9.256;2023-03-25T08:39:18;96587.00;;;8.88;100.00
12178;BME280;6152;48.728;9.256;2023-03-25T08:41:46;96594.28;;;8.54;100.00
12178;BME280;6152;48.728;9.256;2023-03-25T08:44:12;96592.41;;;8.28;100.00
12178;BME280;6152;48.728;9.256;2023-03-25T08:46:39;96589.38;;;7.92;100.00
12178;BME280;6152;48.728;9.256;2023-03-25T08:49:05;96594.47;;;7.63;100.00
12178;BME280;6152;48.728;9.256;2023-03-25T08:51:31;96583.16;;;7.50;100.00
12178;BME280;6152;48.728;9.256;2023-03-25T08:53:57;96584.19;;;7.32;100.00
12178;BME280;6152;48.728;9.256;2023-03-25T08:56:23;96581.72;;;7.31;100.00
12178;BME280;6152;48.728;9.256;2023-03-25T08:58:50;96579.66;;;7.51;100.00
12178;BME280;6152;48.728;9.256;2023-03-25T09:01:16;96584.53;;;7.72;100.00
12178;BME280;6152;48.728;9.256;2023-03-25T09:03:42;96580.25;;;7.71;100.00
12178;BME280;6152;48.728;9.256;2023-03-25T09:06:09;96579.13;;;7.60;100.00
12178;BME280;6152;48.728;9.256;2023-03-25T09:08:35;96575.16;;;7.39;100.00
12178;BME280;6152;48.728;9.256;2023-03-25T09:11:02;96578.84;;;7.35;100.00
12178;BME280;6152;48.728;9.256;2023-03-25T09:13:28;96578.53;;;7.26;100.00
12178;BME280;6152;48.728;9.256;2023-03-25T09:15:56;96573.03;;;7.16;100.00
12178;BME280;6152;48.728;9.256;2023-03-25T09:18:22;96570.81;;;7.10;100.00
12178;BME280;6152;48.728;9.256;2023-03-25T09:20:48;96571.97;;;7.04;100.00
12178;BME280;6152;48.728;9.256;2023-03-25T09:23:16;96567.63;;;7.05;100.00
12178;BME280;6152;48.728;9.256;2023-03-25T09:25:43;96566.22;;;6.99;100.00
12178;BME280;6152;48.728;9.256;2023-03-25T09:28:09;96555.53;;;7.05;100.00
12178;BME280;6152;48.728;9.256;2023-03-25T09:30:35;96559.03;;;7.20;100.00
12178;BME280;6152;48.728;9.256;2023-03-25T09:33:01;96558.56;;;7.28;100.00
12178;BME280;6152;48.728;9.256;2023-03-25T09:35:27;96549.47;;;7.36;100.00
12178;BME280;6152;48.728;9.256;2023-03-25T09:37:53;96552.34;;;7.46;100.00
12178;BME280;6152;48.728;9.256;2023-03-25T09:40:21;96551.91;;;7.53;100.00
12178;BME280;6152;48.728;9.256;2023-03-25T09:43:01;96554.06;;;7.61;100.00
12178;BME280;6152;48.728;9.256;2023-03-25T09:45:41;96548.28;;;8.00;100.00
12178;BME280;6152;48.728;9.256;2023-03-25T09:50:43;96547.03;;;9.04;100.00
12178;BME280;6152;48.728;9.256;2023-03-25T09:55:40;96547.25;;;10.05;100.00
12178;BME280;6152;48.728;9.256;2023-03-25T09:58:20;96540.06;;;10.59;100.00
12178;BME280;6152;48.728;9.256;2023-03-25T10:01:03;96539.44;;;10.56;100.00
12178;BME280;6152;48.728;9.256;2023-03-25T10:04:16;96546.25;;;11.19;100.00
12178;BME280;6152;48.728;9.256;2023-03-25T10:06:42;96530.06;;;11.02;100.00
12178;BME280;6152;48.728;9.256;2023-03-25T10:09:43;96536.91;;;12.65;100.00
12178;BME280;6152;48.728;9.256;2023-03-25T10:12:43;96539.69;;;14.43;100.00
12178;BME280;6152;48.728;9.256;2023-03-25T10:15:31;96533.09;;;16.71;94.98
12178;BME280;6152;48.728;9.256;2023-03-25T10:23:53;96537.38;;;17.44;63.28
12178;BME280;6152;48.728;9.256;2023-03-25T10:26:28;96529.00;;;17.31;67.33
12178;BME280;6152;48.728;9.256;2023-03-25T10:29:20;96513.56;;;17.99;62.68
12178;BME280;6152;48.728;9.256;2023-03-25T10:31:52;96511.03;;;20.31;51.99
12178;BME280;6152;48.728;9.256;2023-03-25T10:34:22;96512.47;;;21.13;47.04
12178;BME280;6152;48.728;9.256;2023-03-25T10:36:53;96509.72;;;20.19;48.55
12178;BME280;6152;48.728;9.256;2023-03-25T10:39:23;96517.25;;;20.62;47.88
12178;BME280;6152;48.728;9.256;2023-03-25T10:41:58;96514.22;;;20.82;45.52
12178;BME280;6152;48.728;9.256;2023-03-25T10:44:25;96515.47;;;21.02;45.20
12178;BME280;6152;48.728;9.256;2023-03-25T10:46:56;96516.94;;;19.52;45.44
12178;BME280;6152;48.728;9.256;2023-03-25T10:49:26;96519.38;;;18.88;46.06
12178;BME280;6152;48.728;9.256;2023-03-25T10:51:53;96511.38;;;17.77;48.79
12178;BME280;6152;48.728;9.256;2023-03-25T10:54:33;96517.38;;;17.51;47.83
12178;BME280;6152;48.728;9.256;2023-03-25T10:57:04;96506.31;;;16.58;51.96
12178;BME280;6152;48.728;9.256;2023-03-25T10:59:54;96519.16;;;15.47;59.56
12178;BME280;6152;48.728;9.256;2023-03-25T11:02:23;96518.22;;;15.68;62.21
12178;BME280;6152;48.728;9.256;2023-03-25T11:05:03;96508.59;;;16.24;58.54
12178;BME280;6152;48.728;9.256;2023-03-25T11:07:36;96501.78;;;18.11;51.74
12178;BME280;6152;48.728;9.256;2023-03-25T11:10:20;96504.22;;;18.30;50.13
12178;BME280;6152;48.728;9.256;2023-03-25T11:12:52;96504.75;;;17.37;51.81
12178;BME280;6152;48.728;9.256;2023-03-25T11:15:32;96522.50;;;15.69;56.44
12178;BME280;6152;48.728;9.256;2023-03-25T11:18:13;96505.75;;;15.31;59.94
12178;BME280;6152;48.728;9.256;2023-03-25T11:20:54;96503.44;;;15.86;57.68
12178;BME280;6152;48.728;9.256;2023-03-25T11:23:24;96499.84;;;16.80;53.94
12178;BME280;6152;48.728;9.256;2023-03-25T11:25:55;96500.66;;;18.65;47.07
12178;BME280;6152;48.728;9.256;2023-03-25T11:28:45;96497.84;;;19.91;44.34
12178;BME280;6152;48.728;9.256;2023-03-25T11:31:17;96493.03;;;20.10;43.99
12178;BME280;6152;48.728;9.256;2023-03-25T11:34:31;96495.41;;;21.46;40.42
12178;BME280;6152;48.728;9.256;2023-03-25T11:36:35;96495.19;;;21.79;39.99
12178;BME280;6152;48.728;9.256;2023-03-25T11:41:49;96483.16;;;22.28;36.99
12178;BME280;6152;48.728;9.256;2023-03-25T11:44:30;96468.31;;;22.86;36.40
12178;BME280;6152;48.728;9.256;2023-03-25T11:47:05;96488.00;;;22.25;36.03
12178;BME280;6152;48.728;9.256;2023-03-25T11:49:39;96474.88;;;21.94;35.67
12178;BME280;6152;48.728;9.256;2023-03-25T11:52:19;96479.75;;;22.72;35.75
12178;BME280;6152;48.728;9.256;2023-03-25T11:54:46;96483.13;;;24.30;33.60
12178;BME280;6152;48.728;9.256;2023-03-25T11:57:27;96475.81;;;22.82;34.56
12178;BME280;6152;48.728;9.256;2023-03-25T12:00:35;96471.00;;;23.79;33.92
12178;BME280;6152;48.728;9.256;2023-03-25T12:03:20;96476.06;;;23.02;34.54
12178;BME280;6152;48.728;9.256;2023-03-25T12:08:43;96479.38;;;20.70;39.19
12178;BME280;6152;48.728;9.256;2023-03-25T12:11:19;96494.03;;;19.69;40.76
12178;BME280;6152;48.728;9.256;2023-03-25T12:13:57;96475.47;;;18.71;41.22
12178;BME280;6152;48.728;9.256;2023-03-25T12:16:38;96471.25;;;17.75;41.38
12178;BME280;6152;48.728;9.256;2023-03-25T12:19:40;96480.72;;;16.50;43.95
12178;BME280;6152;48.728;9.256;2023-03-25T12:25:17;96487.41;;;19.41;39.88
12178;BME280;6152;48.728;9.256;2023-03-25T12:39:03;96491.06;;;17.51;41.77
12178;BME280;6152;48.728;9.256;2023-03-25T12:41:56;96490.38;;;16.59;44.11
12178;BME280;6152;48.728;9.256;2023-03-25T12:45:28;96487.34;;;16.08;45.44
12178;BME280;6152;48.728;9.256;2023-03-25T12:47:41;96484.63;;;15.90;46.00
12178;BME280;6152;48.728;9.256;2023-03-25T12:52:54;96529.22;;;14.43;49.43
12178;BME280;6152;48.728;9.256;2023-03-25T12:58:26;96519.72;;;12.51;77.52
12178;BME280;6152;48.728;9.256;2023-03-25T13:03:55;96528.34;;;12.19;87.13
12178;BME280;6152;48.728;9.256;2023-03-25T13:06:38;96511.28;;;12.14;90.37
12178;BME280;6152;48.728;9.256;2023-03-25T13:09:47;96521.81;;;12.24;98.58
12178;BME280;6152;48.728;9.256;2023-03-25T13:12:22;96516.28;;;12.40;100.00
12178;BME280;6152;48.728;9.256;2023-03-25T13:17:46;96527.28;;;12.21;89.69
12178;BME280;6152;48.728;9.256;2023-03-25T13:20:16;96539.16;;;12.25;94.16
12178;BME280;6152;48.728;9.256;2023-03-25T13:22:48;96531.53;;;12.11;92.68
12178;BME280;6152;48.728;9.256;2023-03-25T13:25:19;96514.00;;;12.24;88.23
12178;BME280;6152;48.728;9.256;2023-03-25T13:27:47;96533.69;;;12.39;90.16
12178;BME280;6152;48.728;9.256;2023-03-25T13:30:36;96498.94;;;12.39;76.65
12178;BME280;6152;48.728;9.256;2023-03-25T13:33:11;96524.22;;;12.38;72.89
12178;BME280;6152;48.728;9.256;2023-03-25T13:35:52;96526.91;;;12.14;69.82
12178;BME280;6152;48.728;9.256;2023-03-25T13:38:31;96521.31;;;11.86;72.52
12178;BME280;6152;48.728;9.256;2023-03-25T13:41:20;96514.56;;;11.59;78.29
12178;BME280;6152;48.728;9.256;2023-03-25T13:46:43;96504.19;;;11.36;80.34
12178;BME280;6152;48.728;9.256;2023-03-25T13:49:13;96519.34;;;11.42;83.49
12178;BME280;6152;48.728;9.256;2023-03-25T13:51:40;96526.16;;;11.55;82.47
12178;BME280;6152;48.728;9.256;2023-03-25T13:54:57;96510.13;;;11.73;80.37
12178;BME280;6152;48.728;9.256;2023-03-25T14:09:26;96516.34;;;12.05;72.73
12178;BME280;6152;48.728;9.256;2023-03-25T14:12:05;96514.69;;;12.04;69.48
12178;BME280;6152;48.728;9.256;2023-03-25T14:14:40;96522.53;;;12.15;67.13
12178;BME280;6152;48.728;9.256;2023-03-25T14:17:09;96528.00;;;12.12;65.64
12178;BME280;6152;48.728;9.256;2023-03-25T14:19:38;96543.63;;;12.12;67.43
12178;BME280;6152;48.728;9.256;2023-03-25T14:22:22;96551.00;;;12.18;67.83
12178;BME280;6152;48.728;9.256;2023-03-25T14:24:49;96559.84;;;12.04;80.36
12178;BME280;6152;48.728;9.256;2023-03-25T14:27:28;96538.75;;;11.61;81.37
12178;BME280;6152;48.728;9.256;2023-03-25T14:48:33;96518.25;;;12.03;72.98
12178;BME280;6152;48.728;9.256;2023-03-25T14:51:33;96506.88;;;12.15;69.59
12178;BME280;6152;48.728;9.256;2023-03-25T14:57:12;96496.69;;;12.34;67.50
12178;BME280;6152;48.728;9.256;2023-03-25T14:59:57;96487.91;;;12.46;64.35
12178;BME280;6152;48.728;9.256;2023-03-25T15:02:31;96491.25;;;12.37;61.32
12178;BME280;6152;48.728;9.256;2023-03-25T15:05:03;96499.88;;;12.49;62.37
12178;BME280;6152;48.728;9.256;2023-03-25T15:07:45;96499.53;;;12.64;59.20
12178;BME280;6152;48.728;9.256;2023-03-25T15:10:48;96487.88;;;12.80;61.96
12178;BME280;6152;48.728;9.256;2023-03-25T15:13:27;96477.16;;;12.83;59.62
12178;BME280;6152;48.728;9.256;2023-03-25T15:16:55;96491.44;;;12.79;58.85
12178;BME280;6152;48.728;9.256;2023-03-25T15:21:17;96488.38;;;12.62;57.07
12178;BME280;6152;48.728;9.256;2023-03-25T15:24:07;96497.63;;;12.66;57.93
12178;BME280;6152;48.728;9.256;2023-03-25T15:26:40;96493.38;;;12.54;58.06
12178;BME280;6152;48.728;9.256;2023-03-25T15:40:46;96496.44;;;12.59;61.81
12178;BME280;6152;48.728;9.256;2023-03-25T15:46:33;96500.25;;;12.33;65.97